Terminal Aerodrome Forecast
Issued by NWS

Home | Current Version | Previous Version | Text Only | Print | Product List | Glossary On
Versions: 1 2 3 4 5 6 7 8 9 10 11 12
000
FTAK31 PAJN 202300
TAFASI
TAF
PASI 202322Z 2100/2124 23007KT P6SM FEW030
     FM210400 VRB03KT P6SM SKC
     FM211800 26010KT P6SM SKC=

USA.gov is the U.S. government's official web portal to all federal, state and local government web resources and services.